Time;durP1;ratioP1;P1;durP2;ratioP2;P2;SDS_P1;SDS_P2;PMS_P1;PMS_P2;Temp;Humidity;BMP_temperature;BMP_pressure;BME280_temperature;BME280_humidity;BME280_pressure;Samples;Min_cycle;Max_cycle;Signal;HPM_P1;HPM_P2
2022/01/06 00:00:10;;;;;;;25.10;5.45;;;6.40;99.90;;;;;;2080491;28;20075;-70
2022/01/06 00:01:11;;;;;;;22.38;5.38;;;6.40;99.90;;;;;;2079372;28;20488;-70
2022/01/06 00:02:11;;;;;;;17.75;5.38;;;6.40;99.90;;;;;;2080064;28;20336;-70
2022/01/06 00:03:12;;;;;;;22.55;5.82;;;6.40;99.90;;;;;;2072046;28;20117;-70
2022/01/06 00:04:13;;;;;;;19.63;5.55;;;6.40;99.90;;;;;;2083621;28;20029;-70
2022/01/06 00:05:13;;;;;;;23.75;4.78;;;6.40;99.90;;;;;;2079572;28;20025;-70
2022/01/06 00:06:14;;;;;;;19.92;5.25;;;6.40;99.90;;;;;;2089901;28;20048;-70
2022/01/06 00:07:14;;;;;;;18.90;4.85;;;6.40;99.90;;;;;;2086520;28;20030;-70
2022/01/06 00:08:15;;;;;;;20.92;5.10;;;6.40;99.90;;;;;;2081715;28;20040;-70
2022/01/06 00:09:18;;;;;;;19.48;4.60;;;6.40;99.90;;;;;;2080942;28;20030;-70
2022/01/06 00:10:18;;;;;;;20.10;5.40;;;6.40;99.90;;;;;;2080957;28;20527;-70
2022/01/06 00:11:19;;;;;;;23.67;5.00;;;6.40;99.90;;;;;;2081234;28;20366;-70
2022/01/06 00:12:24;;;;;;;18.38;4.40;;;6.40;99.90;;;;;;2081437;28;20481;-71
2022/01/06 00:13:33;;;;;;;24.67;5.50;;;6.40;99.90;;;;;;2081826;28;20107;-70
2022/01/06 00:14:52;;;;;;;22.85;4.78;;;6.30;99.90;;;;;;2081648;28;20037;-70
2022/01/06 00:16:03;;;;;;;20.47;5.20;;;6.30;99.90;;;;;;2080622;28;20022;-70
2022/01/06 00:18:11;;;;;;;20.45;5.10;;;6.30;99.90;;;;;;2080229;28;20288;-70
2022/01/06 00:18:38;;;;;;;21.55;5.25;;;6.30;99.90;;;;;;2080444;28;20025;-71
2022/01/06 00:23:42;;;;;;;20.98;5.20;;;6.20;99.90;;;;;;2082256;28;20025;-70
2022/01/06 00:24:42;;;;;;;27.15;6.43;;;6.20;99.90;;;;;;2089976;28;20096;-70
2022/01/06 00:25:43;;;;;;;18.63;5.20;;;6.20;99.90;;;;;;2089943;28;20496;-70
2022/01/06 00:26:44;;;;;;;23.20;5.88;;;6.20;99.90;;;;;;2086586;28;20017;-70
2022/01/06 00:27:44;;;;;;;21.80;5.25;;;6.20;99.90;;;;;;2089278;28;20037;-70
2022/01/06 00:28:45;;;;;;;20.83;5.72;;;6.20;99.90;;;;;;2088949;28;20474;-70
2022/01/06 00:29:46;;;;;;;18.65;5.10;;;6.20;99.90;;;;;;2089307;28;20039;-70
2022/01/06 00:30:47;;;;;;;16.17;6.65;;;6.10;99.90;;;;;;2081540;28;20488;-70
2022/01/06 00:31:47;;;;;;;22.83;5.78;;;6.10;99.90;;;;;;2080641;28;20029;-70
2022/01/06 00:32:48;;;;;;;19.98;5.30;;;6.10;99.90;;;;;;2080904;28;20103;-70
2022/01/06 00:33:48;;;;;;;21.35;4.97;;;6.10;99.90;;;;;;2081515;28;20052;-70
2022/01/06 00:34:49;;;;;;;22.98;5.13;;;6.10;99.90;;;;;;2081499;28;20040;-70
2022/01/06 00:35:50;;;;;;;19.20;5.70;;;6.10;99.90;;;;;;2081405;28;20030;-70
2022/01/06 00:36:51;;;;;;;20.33;4.85;;;6.10;99.90;;;;;;2081440;28;20013;-70
2022/01/06 00:37:52;;;;;;;21.80;5.65;;;6.10;99.90;;;;;;2081607;28;20020;-70
2022/01/06 00:38:52;;;;;;;19.65;5.38;;;6.10;99.90;;;;;;2081585;28;20092;-70
2022/01/06 00:39:53;;;;;;;20.88;5.80;;;6.10;99.90;;;;;;2081636;28;20101;-70
2022/01/06 00:40:54;;;;;;;23.63;5.00;;;6.10;99.90;;;;;;2081324;28;20037;-70
2022/01/06 00:41:57;;;;;;;19.63;5.15;;;6.00;99.90;;;;;;2088774;28;20017;-70
2022/01/06 00:42:58;;;;;;;17.20;4.97;;;6.10;99.90;;;;;;2089674;28;20450;-70
2022/01/06 00:43:58;;;;;;;21.60;5.68;;;6.00;99.90;;;;;;2089928;28;20420;-70
2022/01/06 00:44:59;;;;;;;20.27;5.15;;;6.00;99.90;;;;;;2089378;28;20028;-70
2022/01/06 00:45:59;;;;;;;19.98;5.05;;;6.00;99.90;;;;;;2089837;28;20112;-70
2022/01/06 00:47:00;;;;;;;24.63;5.05;;;6.00;99.90;;;;;;2081609;28;20036;-70
2022/01/06 00:48:00;;;;;;;20.30;5.18;;;6.00;99.90;;;;;;2081527;28;20049;-70
2022/01/06 00:49:01;;;;;;;16.05;4.35;;;6.00;99.90;;;;;;2081388;28;20025;-70
2022/01/06 00:50:03;;;;;;;15.35;5.07;;;6.00;99.90;;;;;;2081529;28;20440;-70
2022/01/06 00:51:03;;;;;;;15.30;5.55;;;5.90;99.90;;;;;;2081343;28;20025;-70
2022/01/06 00:52:04;;;;;;;23.83;5.60;;;5.90;99.90;;;;;;2081454;28;20018;-70
2022/01/06 00:53:05;;;;;;;18.67;5.00;;;5.90;99.90;;;;;;2081069;28;20056;-70
2022/01/06 00:54:05;;;;;;;23.42;5.38;;;5.90;99.90;;;;;;2082173;28;20103;-70
2022/01/06 00:55:07;;;;;;;19.27;6.03;;;5.90;99.90;;;;;;2089891;28;20127;-70
2022/01/06 00:56:07;;;;;;;20.60;5.35;;;5.90;99.90;;;;;;2085749;28;20032;-70
2022/01/06 00:57:08;;;;;;;21.73;5.25;;;5.90;99.90;;;;;;2089731;28;20028;-70
2022/01/06 00:58:09;;;;;;;20.42;5.70;;;5.90;99.90;;;;;;2089454;28;20076;-70
2022/01/06 00:59:10;;;;;;;17.85;4.97;;;5.90;99.90;;;;;;2089786;28;20025;-70
2022/01/06 01:00:11;;;;;;;24.63;5.60;;;5.90;99.90;;;;;;2089716;28;20031;-70
2022/01/06 01:01:12;;;;;;;19.73;5.40;;;5.90;99.90;;;;;;2086431;28;20032;-70
2022/01/06 01:02:12;;;;;;;17.63;5.22;;;5.90;99.90;;;;;;2080194;28;20064;-70
2022/01/06 01:03:21;;;;;;;22.73;6.10;;;5.90;99.90;;;;;;2073231;28;20473;-70
2022/01/06 01:04:22;;;;;;;22.38;5.32;;;5.90;99.90;;;;;;2077448;28;20029;-70
2022/01/06 01:05:23;;;;;;;21.90;5.32;;;5.80;99.90;;;;;;2080220;28;20030;-70
2022/01/06 01:06:23;;;;;;;23.42;6.28;;;5.80;99.90;;;;;;2088357;28;20186;-70
2022/01/06 01:07:24;;;;;;;24.98;5.90;;;5.80;99.90;;;;;;2083435;28;20096;-70
2022/01/06 01:08:26;;;;;;;16.48;4.63;;;5.80;99.90;;;;;;2078922;28;20040;-70
2022/01/06 01:09:26;;;;;;;20.63;5.43;;;5.80;99.90;;;;;;2079498;28;20469;-70
2022/01/06 01:10:27;;;;;;;24.13;4.63;;;5.80;99.90;;;;;;2080085;28;20052;-70
2022/01/06 01:11:27;;;;;;;24.48;6.03;;;5.80;99.90;;;;;;2079305;28;20022;-70
2022/01/06 01:12:28;;;;;;;22.80;5.43;;;5.80;99.90;;;;;;2085801;28;20029;-70
2022/01/06 01:13:31;;;;;;;17.05;5.70;;;5.80;99.90;;;;;;2087607;28;20035;-70
2022/01/06 01:14:43;;;;;;;19.05;5.78;;;5.80;99.90;;;;;;2088050;28;20021;-70
2022/01/06 01:15:49;;;;;;;17.10;5.00;;;5.80;99.90;;;;;;2086208;28;20025;-70
2022/01/06 01:16:55;;;;;;;22.95;5.68;;;5.70;99.90;;;;;;2081102;28;20378;-70
2022/01/06 01:18:04;;;;;;;27.02;6.60;;;5.70;99.90;;;;;;2083429;28;20018;-70
2022/01/06 01:19:10;;;;;;;22.10;5.90;;;5.70;99.90;;;;;;2086523;28;20749;-70
2022/01/06 01:20:11;;;;;;;26.63;5.20;;;5.70;99.90;;;;;;2088357;28;20029;-70
2022/01/06 01:21:12;;;;;;;18.92;6.18;;;5.70;99.90;;;;;;2095631;28;20488;-70
2022/01/06 01:22:12;;;;;;;20.40;5.47;;;5.60;99.90;;;;;;2093543;28;20055;-70
2022/01/06 01:23:14;;;;;;;26.15;6.15;;;5.60;99.90;;;;;;2081184;28;20036;-70
2022/01/06 01:24:15;;;;;;;19.80;5.63;;;5.70;99.90;;;;;;2095581;28;20035;-70
2022/01/06 01:25:15;;;;;;;23.35;5.97;;;5.70;99.90;;;;;;2094913;28;20060;-70
2022/01/06 01:26:16;;;;;;;26.70;6.72;;;5.70;99.90;;;;;;2079982;28;20072;-70
2022/01/06 01:27:21;;;;;;;20.38;5.70;;;5.70;99.90;;;;;;2088063;28;20108;-70
2022/01/06 01:28:22;;;;;;;24.42;5.70;;;5.70;99.90;;;;;;2087779;28;20021;-70
2022/01/06 01:29:22;;;;;;;20.92;5.05;;;5.60;99.90;;;;;;2089248;28;20421;-70
2022/01/06 01:30:31;;;;;;;24.50;6.07;;;5.60;99.90;;;;;;2097284;28;20056;-70
2022/01/06 01:31:36;;;;;;;21.30;5.43;;;5.60;99.90;;;;;;2096348;28;20032;-70
2022/01/06 01:32:38;;;;;;;18.38;5.18;;;5.60;99.90;;;;;;2097037;28;20028;-70
2022/01/06 01:33:39;;;;;;;21.02;5.75;;;5.60;99.90;;;;;;2083067;28;20029;-70
2022/01/06 01:34:44;;;;;;;26.38;6.35;;;5.60;99.90;;;;;;2083191;28;20100;-70
2022/01/06 01:35:45;;;;;;;18.85;4.90;;;5.60;99.90;;;;;;2089846;28;20021;-70
2022/01/06 01:36:45;;;;;;;22.67;5.45;;;5.60;99.90;;;;;;2086639;28;20029;-70
2022/01/06 01:37:46;;;;;;;28.02;6.60;;;5.60;99.90;;;;;;2081482;28;20017;-70
2022/01/06 01:38:47;;;;;;;25.83;5.57;;;5.60;99.90;;;;;;2081614;28;20030;-70
2022/01/06 01:39:47;;;;;;;27.25;5.85;;;5.60;99.90;;;;;;2085422;28;20036;-70
2022/01/06 01:40:48;;;;;;;22.55;5.95;;;5.60;99.90;;;;;;2089625;28;20040;-70
2022/01/06 01:41:49;;;;;;;25.17;5.68;;;5.60;99.90;;;;;;2096496;28;20511;-69
2022/01/06 01:42:50;;;;;;;22.67;5.72;;;5.60;99.90;;;;;;2097027;28;20574;-70
2022/01/06 01:43:53;;;;;;;19.95;5.78;;;5.60;99.90;;;;;;2089810;28;21073;-70
2022/01/06 01:44:54;;;;;;;23.02;5.85;;;5.60;99.90;;;;;;2089780;28;20028;-70
2022/01/06 01:45:57;;;;;;;24.60;5.15;;;5.60;99.90;;;;;;2089380;28;20029;-70
2022/01/06 01:47:01;;;;;;;22.38;5.80;;;5.60;99.90;;;;;;2089734;28;20036;-70
2022/01/06 01:48:07;;;;;;;18.58;4.72;;;5.60;99.90;;;;;;2089347;28;20036;-70
2022/01/06 01:49:28;;;;;;;19.10;5.85;;;5.60;99.90;;;;;;2089336;28;20048;-70
2022/01/06 01:50:28;;;;;;;18.98;5.47;;;5.60;99.90;;;;;;2089565;28;20027;-69
2022/01/06 01:51:29;;;;;;;23.10;5.20;;;5.50;99.90;;;;;;2086201;28;20032;-70
2022/01/06 01:52:29;;;;;;;26.50;5.80;;;5.50;99.90;;;;;;2081306;28;20083;-70
2022/01/06 01:53:30;;;;;;;18.30;5.55;;;5.50;99.90;;;;;;2081182;28;20029;-70
2022/01/06 01:54:31;;;;;;;21.33;5.30;;;5.50;99.90;;;;;;2080999;28;21027;-70
2022/01/06 01:55:33;;;;;;;26.27;6.32;;;5.50;99.90;;;;;;2080301;28;20512;-70
2022/01/06 01:56:34;;;;;;;24.13;6.38;;;5.50;99.90;;;;;;2080483;28;20057;-70
2022/01/06 01:57:35;;;;;;;25.30;5.82;;;5.50;99.90;;;;;;2081531;28;20025;-70
2022/01/06 01:58:38;;;;;;;19.95;4.70;;;5.50;99.90;;;;;;2081217;28;20064;-70
2022/01/06 01:59:39;;;;;;;31.70;6.30;;;5.50;99.90;;;;;;2081351;28;20469;-70
2022/01/06 02:00:39;;;;;;;20.85;5.72;;;5.50;99.90;;;;;;2080451;28;20362;-70
2022/01/06 02:01:43;;;;;;;22.52;5.32;;;5.50;99.90;;;;;;2080179;28;20022;-70
2022/01/06 02:02:44;;;;;;;23.00;5.43;;;5.50;99.90;;;;;;2075790;28;20351;-70
2022/01/06 02:03:44;;;;;;;19.23;4.80;;;5.50;99.90;;;;;;2080271;28;20400;-70
2022/01/06 02:04:47;;;;;;;25.30;5.30;;;5.50;99.90;;;;;;2088485;28;20460;-70
2022/01/06 02:05:48;;;;;;;21.60;5.20;;;5.50;99.90;;;;;;2079868;28;20036;-70
2022/01/06 02:06:48;;;;;;;23.48;5.68;;;5.50;99.90;;;;;;2088049;28;20021;-70
2022/01/06 02:07:49;;;;;;;17.33;4.53;;;5.50;99.90;;;;;;2088486;28;20488;-70
2022/01/06 02:08:51;;;;;;;21.05;5.30;;;5.50;99.90;;;;;;2080401;28;20052;-70
2022/01/06 02:09:51;;;;;;;19.23;5.50;;;5.60;99.90;;;;;;2072088;28;20441;-70
2022/01/06 02:10:52;;;;;;;26.10;5.35;;;5.50;99.90;;;;;;2080474;28;20517;-70
2022/01/06 02:11:53;;;;;;;22.80;5.72;;;5.50;99.90;;;;;;2089581;28;20421;-69
2022/01/06 02:12:56;;;;;;;24.00;5.35;;;5.50;99.90;;;;;;2089661;28;20521;-69
2022/01/06 02:13:59;;;;;;;20.15;5.72;;;5.50;99.90;;;;;;2084184;28;20454;-70
2022/01/06 02:14:59;;;;;;;22.27;5.07;;;5.50;99.90;;;;;;2081342;28;20017;-70
2022/01/06 02:16:02;;;;;;;22.05;5.55;;;5.50;99.90;;;;;;2089025;28;20032;-70
2022/01/06 02:17:02;;;;;;;21.20;5.40;;;5.50;99.90;;;;;;2089362;28;20374;-70
2022/01/06 02:18:03;;;;;;;23.13;5.88;;;5.50;99.90;;;;;;2079412;28;20034;-70
2022/01/06 02:19:04;;;;;;;23.70;6.13;;;5.50;99.90;;;;;;2080246;28;20057;-70
2022/01/06 02:20:10;;;;;;;20.98;5.30;;;5.50;99.90;;;;;;2081130;28;20036;-70
2022/01/06 02:21:10;;;;;;;16.15;4.40;;;5.50;99.90;;;;;;2081164;28;20030;-70
2022/01/06 02:22:11;;;;;;;21.48;5.13;;;5.50;99.90;;;;;;2084472;28;20029;-70
2022/01/06 02:23:11;;;;;;;21.65;4.57;;;5.50;99.90;;;;;;2074334;28;20033;-70
2022/01/06 02:24:12;;;;;;;18.92;5.63;;;5.50;99.90;;;;;;2081032;28;20048;-70
2022/01/06 02:25:15;;;;;;;18.40;5.88;;;5.50;99.90;;;;;;2080920;28;20037;-70
2022/01/06 02:26:15;;;;;;;23.88;6.60;;;5.50;99.90;;;;;;2081186;28;20025;-70
2022/01/06 02:27:19;;;;;;;22.98;5.50;;;5.50;99.90;;;;;;2088503;28;20098;-70
2022/01/06 02:28:25;;;;;;;21.70;5.50;;;5.50;99.90;;;;;;2087940;28;20447;-70
2022/01/06 02:29:25;;;;;;;19.13;5.47;;;5.50;99.90;;;;;;2081160;28;20702;-70
2022/01/06 02:30:26;;;;;;;20.55;4.45;;;5.50;99.90;;;;;;2080700;28;20351;-70
2022/01/06 02:31:27;;;;;;;21.67;5.32;;;5.50;99.90;;;;;;2080320;28;20037;-70
2022/01/06 02:32:28;;;;;;;23.95;5.25;;;5.50;99.90;;;;;;2081262;28;20429;-70
2022/01/06 02:33:28;;;;;;;19.02;4.75;;;5.50;99.90;;;;;;2085846;28;20180;-70
2022/01/06 02:34:29;;;;;;;28.00;5.55;;;5.50;99.90;;;;;;2087907;28;20031;-70
2022/01/06 02:35:31;;;;;;;20.20;5.20;;;5.50;99.90;;;;;;2081011;28;20033;-70
2022/01/06 02:36:31;;;;;;;22.63;5.20;;;5.50;99.90;;;;;;2084819;28;20017;-70
2022/01/06 02:37:32;;;;;;;21.27;5.43;;;5.50;99.90;;;;;;2096719;28;20020;-70
2022/01/06 02:38:34;;;;;;;25.83;5.80;;;5.50;99.90;;;;;;2088243;28;20025;-70
2022/01/06 02:39:35;;;;;;;21.15;4.95;;;5.50;99.90;;;;;;2086892;28;20373;-70
2022/01/06 02:40:35;;;;;;;21.05;4.88;;;5.60;99.90;;;;;;2089252;28;20028;-70
2022/01/06 02:41:36;;;;;;;21.98;5.93;;;5.60;99.90;;;;;;2088298;28;20028;-70
2022/01/06 02:42:42;;;;;;;24.80;6.22;;;5.60;99.90;;;;;;2089405;28;20021;-70
2022/01/06 02:43:43;;;;;;;20.33;5.85;;;5.60;99.90;;;;;;2089523;28;20488;-70
2022/01/06 02:44:43;;;;;;;30.58;6.25;;;5.60;99.90;;;;;;2089104;28;20370;-71
2022/01/06 02:45:45;;;;;;;20.38;5.70;;;5.60;99.90;;;;;;2089225;28;20433;-70
2022/01/06 02:46:46;;;;;;;18.83;5.60;;;5.60;99.90;;;;;;2089108;28;20025;-70
2022/01/06 02:47:48;;;;;;;21.20;6.15;;;5.60;99.90;;;;;;2089097;28;20044;-70
2022/01/06 02:48:49;;;;;;;19.75;5.15;;;5.60;99.90;;;;;;2088019;28;20415;-70
2022/01/06 02:49:50;;;;;;;31.05;5.63;;;5.60;99.90;;;;;;2079872;28;20075;-70
2022/01/06 02:50:51;;;;;;;28.27;6.45;;;5.60;99.90;;;;;;2081254;28;20022;-70
2022/01/06 02:51:52;;;;;;;20.48;6.20;;;5.60;99.90;;;;;;2088676;28;20090;-70
2022/01/06 02:52:53;;;;;;;28.08;6.30;;;5.60;99.90;;;;;;2089146;28;20016;-70
2022/01/06 02:53:53;;;;;;;29.10;5.40;;;5.60;99.90;;;;;;2089250;28;20025;-70
2022/01/06 02:54:54;;;;;;;29.77;5.60;;;5.60;99.90;;;;;;2089067;28;20373;-70
2022/01/06 02:55:54;;;;;;;24.30;5.82;;;5.60;99.90;;;;;;2086083;28;20041;-70
2022/01/06 02:56:55;;;;;;;23.38;5.78;;;5.60;99.90;;;;;;2088987;28;20492;-70
2022/01/06 02:57:56;;;;;;;21.75;5.28;;;5.60;99.90;;;;;;2089099;28;20013;-70
2022/01/06 02:58:56;;;;;;;26.30;5.18;;;5.60;99.90;;;;;;2089356;28;20380;-70
2022/01/06 02:59:57;;;;;;;27.77;5.10;;;5.60;99.90;;;;;;2088644;28;20078;-70
2022/01/06 03:00:58;;;;;;;21.58;5.00;;;5.60;99.90;;;;;;2089045;28;20088;-70
2022/01/06 03:01:58;;;;;;;19.58;4.93;;;5.60;99.90;;;;;;2093134;28;20028;-70
2022/01/06 03:02:59;;;;;;;25.90;4.82;;;5.60;99.90;;;;;;2081700;28;20428;-71
2022/01/06 03:03:59;;;;;;;18.48;4.38;;;5.60;99.90;;;;;;2075964;28;20134;-71
2022/01/06 03:05:00;;;;;;;21.92;5.82;;;5.60;99.90;;;;;;2080742;28;20030;-70
2022/01/06 03:06:00;;;;;;;23.23;4.68;;;5.60;99.90;;;;;;2081636;28;20112;-70
2022/01/06 03:07:02;;;;;;;22.23;5.32;;;5.60;99.90;;;;;;2080605;28;20064;-70
2022/01/06 03:08:02;;;;;;;16.60;4.60;;;5.60;99.90;;;;;;2080607;28;20022;-71
2022/01/06 03:09:04;;;;;;;21.88;5.57;;;5.60;99.90;;;;;;2080622;28;20068;-70
2022/01/06 03:10:07;;;;;;;23.60;4.90;;;5.60;99.90;;;;;;2080678;28;20026;-70
2022/01/06 03:11:07;;;;;;;27.17;5.47;;;5.70;99.90;;;;;;2080675;28;20024;-70
2022/01/06 03:12:18;;;;;;;20.33;4.90;;;5.70;99.90;;;;;;2083641;28;20029;-70
2022/01/06 03:13:19;;;;;;;18.98;4.75;;;5.70;99.90;;;;;;2088973;28;20044;-70
2022/01/06 03:14:20;;;;;;;18.55;5.45;;;5.70;99.90;;;;;;2089013;28;20055;-70
2022/01/06 03:15:23;;;;;;;19.38;4.93;;;5.70;99.90;;;;;;2088633;28;20017;-71
2022/01/06 03:16:23;;;;;;;17.95;4.78;;;5.70;99.90;;;;;;2079370;28;20036;-70
2022/01/06 03:17:24;;;;;;;20.65;4.70;;;5.70;99.90;;;;;;2078184;28;20092;-70
2022/01/06 03:18:25;;;;;;;19.95;5.13;;;5.70;99.90;;;;;;2079568;28;20025;-70
2022/01/06 03:19:25;;;;;;;18.85;4.40;;;5.70;99.90;;;;;;2080978;28;20362;-70
2022/01/06 03:20:29;;;;;;;22.52;6.35;;;5.70;99.90;;;;;;2085668;28;20037;-70
2022/01/06 03:21:29;;;;;;;23.20;5.13;;;5.70;99.90;;;;;;2074673;28;20056;-70
2022/01/06 03:22:30;;;;;;;19.27;4.70;;;5.70;99.90;;;;;;2080253;28;20032;-70
2022/01/06 03:23:30;;;;;;;23.95;4.88;;;5.70;99.90;;;;;;2080577;28;20096;-70
2022/01/06 03:24:31;;;;;;;18.50;4.75;;;5.70;99.90;;;;;;2080574;28;20025;-70
2022/01/06 03:25:31;;;;;;;18.50;4.75;;;5.70;99.90;;;;;;2074291;28;20109;-70
2022/01/06 03:26:32;;;;;;;22.10;5.65;;;5.70;99.90;;;;;;2075580;28;20025;-70
2022/01/06 03:27:33;;;;;;;20.02;4.65;;;5.70;99.90;;;;;;2080262;28;20032;-71
2022/01/06 03:28:34;;;;;;;22.83;4.72;;;5.70;99.90;;;;;;2079705;28;20033;-70
2022/01/06 03:29:34;;;;;;;22.55;5.82;;;5.60;99.90;;;;;;2088023;28;20017;-70
2022/01/06 03:30:35;;;;;;;25.17;4.53;;;5.60;99.90;;;;;;2088682;28;20029;-70
2022/01/06 03:31:35;;;;;;;19.35;4.45;;;5.60;99.90;;;;;;2088182;28;20051;-70
2022/01/06 03:32:37;;;;;;;16.13;4.50;;;5.60;99.90;;;;;;2081104;28;20021;-70
2022/01/06 03:33:37;;;;;;;18.73;4.65;;;5.60;99.90;;;;;;2077944;28;20029;-70
2022/01/06 03:34:38;;;;;;;17.20;4.28;;;5.70;99.90;;;;;;2075986;28;20022;-70
2022/01/06 03:35:38;;;;;;;19.40;4.65;;;5.60;99.90;;;;;;2088523;28;20090;-70
2022/01/06 03:36:39;;;;;;;21.88;5.50;;;5.60;99.90;;;;;;2088053;28;20381;-70
2022/01/06 03:37:41;;;;;;;17.90;4.40;;;5.70;99.90;;;;;;2088697;28;20025;-70
2022/01/06 03:38:41;;;;;;;21.73;5.45;;;5.70;99.90;;;;;;2088675;28;20029;-70
2022/01/06 03:39:43;;;;;;;16.40;5.15;;;5.70;99.90;;;;;;2088743;28;20025;-70
2022/01/06 03:40:44;;;;;;;22.05;4.97;;;5.60;99.90;;;;;;2088843;28;20066;-70
2022/01/06 03:41:45;;;;;;;20.42;5.43;;;5.60;99.90;;;;;;2088239;28;20021;-70
2022/01/06 03:42:46;;;;;;;26.23;5.30;;;5.60;99.90;;;;;;2087899;28;20021;-70
2022/01/06 03:43:46;;;;;;;25.80;6.43;;;5.60;99.90;;;;;;2088153;28;20017;-70
2022/01/06 03:44:49;;;;;;;18.88;5.55;;;5.60;99.90;;;;;;2096344;28;20020;-70
2022/01/06 03:45:49;;;;;;;18.73;4.90;;;5.60;99.90;;;;;;2088449;28;20048;-70
2022/01/06 03:46:50;;;;;;;27.00;5.07;;;5.50;99.90;;;;;;2081059;28;20040;-70
2022/01/06 03:47:51;;;;;;;21.52;5.20;;;5.60;99.90;;;;;;2080500;28;20017;-70
2022/01/06 03:48:51;;;;;;;17.58;4.97;;;5.50;99.90;;;;;;2080612;28;20040;-70
2022/01/06 03:49:52;;;;;;;22.05;4.93;;;5.50;99.90;;;;;;2080179;28;20523;-70
2022/01/06 03:50:52;;;;;;;27.13;5.60;;;5.50;99.90;;;;;;2077765;28;20021;-70
2022/01/06 03:51:53;;;;;;;24.73;5.72;;;5.50;99.90;;;;;;2081103;28;20033;-70
2022/01/06 03:52:54;;;;;;;19.10;4.68;;;5.50;99.90;;;;;;2082443;28;20021;-70
2022/01/06 03:53:54;;;;;;;20.50;5.35;;;5.40;99.90;;;;;;2086060;28;20050;-70
2022/01/06 03:54:55;;;;;;;20.50;4.85;;;5.40;99.90;;;;;;2088060;28;20096;-70
2022/01/06 03:55:55;;;;;;;21.55;4.75;;;5.40;99.90;;;;;;2081748;28;20083;-70
2022/01/06 03:56:57;;;;;;;16.63;4.55;;;5.40;99.90;;;;;;2071668;28;20022;-70
2022/01/06 03:57:57;;;;;;;22.15;5.32;;;5.40;99.90;;;;;;2078187;28;20044;-70
2022/01/06 03:58:58;;;;;;;25.83;5.55;;;5.40;99.90;;;;;;2080301;28;20024;-70
2022/01/06 03:59:59;;;;;;;24.77;5.55;;;5.40;99.90;;;;;;2080249;28;20382;-70
2022/01/06 04:00:59;;;;;;;20.60;4.88;;;5.40;99.90;;;;;;2079095;28;20041;-70
2022/01/06 04:02:00;;;;;;;24.05;5.45;;;5.40;99.90;;;;;;2079515;28;20037;-70
2022/01/06 04:03:00;;;;;;;18.95;4.43;;;5.40;99.90;;;;;;2072693;28;20030;-70
2022/01/06 04:04:01;;;;;;;19.88;4.68;;;5.40;99.90;;;;;;2078135;28;20030;-70
2022/01/06 04:05:06;;;;;;;24.77;5.82;;;5.40;99.90;;;;;;2080077;28;20394;-70
2022/01/06 04:06:07;;;;;;;18.15;5.18;;;5.40;99.90;;;;;;2078646;28;20588;-70
2022/01/06 04:07:07;;;;;;;24.25;5.88;;;5.30;99.90;;;;;;2081555;28;20409;-70
2022/01/06 04:08:08;;;;;;;23.23;4.57;;;5.40;99.90;;;;;;2081718;28;20537;-70
2022/01/06 04:09:09;;;;;;;18.02;4.22;;;5.30;99.90;;;;;;2077357;28;20037;-70
2022/01/06 04:10:10;;;;;;;14.75;4.20;;;5.30;99.90;;;;;;2074429;28;20030;-70
2022/01/06 04:11:11;;;;;;;18.63;4.88;;;5.30;99.90;;;;;;2081018;28;20025;-70
2022/01/06 04:12:11;;;;;;;15.18;4.60;;;5.30;99.90;;;;;;2084617;28;20036;-70
2022/01/06 04:13:12;;;;;;;21.05;4.47;;;5.30;99.90;;;;;;2080549;28;20017;-70
2022/01/06 04:14:12;;;;;;;18.33;4.82;;;5.30;99.90;;;;;;2080858;28;20101;-70
2022/01/06 04:15:14;;;;;;;16.33;4.00;;;5.30;99.90;;;;;;2081420;28;20017;-70
2022/01/06 04:16:16;;;;;;;18.10;4.28;;;5.30;99.90;;;;;;2081736;28;20049;-70
2022/01/06 04:17:17;;;;;;;22.00;4.55;;;5.30;99.90;;;;;;2081570;28;20013;-70
2022/01/06 04:18:17;;;;;;;23.08;4.93;;;5.30;99.90;;;;;;2081572;28;20025;-70
2022/01/06 04:19:18;;;;;;;17.60;4.65;;;5.30;99.90;;;;;;2080455;28;20041;-70
2022/01/06 04:20:18;;;;;;;20.40;4.65;;;5.30;99.90;;;;;;2085302;28;20059;-70
2022/01/06 04:21:19;;;;;;;12.23;4.47;;;5.30;99.90;;;;;;2089698;28;20025;-70
2022/01/06 04:22:20;;;;;;;18.23;5.07;;;5.30;99.90;;;;;;2089677;28;20025;-70
2022/01/06 04:23:20;;;;;;;22.27;4.60;;;5.30;99.90;;;;;;2089710;28;20075;-70
2022/01/06 04:24:21;;;;;;;15.65;3.83;;;5.30;99.90;;;;;;2089943;28;20374;-69
2022/01/06 04:25:22;;;;;;;26.80;5.90;;;5.30;99.90;;;;;;2081226;28;20025;-70
2022/01/06 04:26:22;;;;;;;21.05;4.70;;;5.20;99.90;;;;;;2077173;28;20557;-70
2022/01/06 04:27:23;;;;;;;24.42;5.20;;;5.20;99.90;;;;;;2089871;28;20075;-70
2022/01/06 04:28:23;;;;;;;24.33;5.38;;;5.20;99.90;;;;;;2089912;28;20025;-70
2022/01/06 04:29:24;;;;;;;17.55;5.32;;;5.20;99.90;;;;;;2084644;28;20021;-70
2022/01/06 04:30:24;;;;;;;13.15;4.18;;;5.20;99.90;;;;;;2088156;28;20120;-70
2022/01/06 04:31:25;;;;;;;15.60;4.57;;;5.20;99.90;;;;;;2088843;28;20549;-69
2022/01/06 04:32:25;;;;;;;20.38;4.68;;;5.20;99.90;;;;;;2097466;28;20074;-69
2022/01/06 04:33:26;;;;;;;16.92;4.50;;;5.20;99.90;;;;;;2089788;28;20029;-69
2022/01/06 04:34:27;;;;;;;17.67;4.70;;;5.10;99.90;;;;;;2082331;28;20033;-69
2022/01/06 04:35:27;;;;;;;19.17;5.28;;;5.10;99.90;;;;;;2081519;28;20022;-69
2022/01/06 04:36:28;;;;;;;24.15;5.40;;;5.10;99.90;;;;;;2081560;28;20022;-69
2022/01/06 04:37:28;;;;;;;20.02;5.03;;;5.10;99.90;;;;;;2081404;28;20382;-69
2022/01/06 04:38:29;;;;;;;18.65;4.22;;;5.10;99.90;;;;;;2081692;28;20100;-69
2022/01/06 04:39:30;;;;;;;21.55;4.63;;;5.10;99.90;;;;;;2083262;28;20029;-69
2022/01/06 04:40:30;;;;;;;14.63;4.22;;;5.10;99.90;;;;;;2089919;28;20420;-69
2022/01/06 04:41:31;;;;;;;17.08;4.35;;;5.10;99.90;;;;;;2089724;28;20045;-69
2022/01/06 04:42:31;;;;;;;11.90;4.13;;;5.10;99.90;;;;;;2084392;28;20086;-69
2022/01/06 04:43:32;;;;;;;15.93;4.18;;;5.10;99.90;;;;;;2081503;28;20030;-69
2022/01/06 04:44:32;;;;;;;15.45;4.32;;;5.10;99.90;;;;;;2084734;28;20081;-69
2022/01/06 04:45:34;;;;;;;16.23;4.78;;;5.10;99.90;;;;;;2089974;28;20025;-69
2022/01/06 04:46:34;;;;;;;20.52;5.20;;;5.10;99.90;;;;;;2089606;28;20033;-69
2022/01/06 04:47:35;;;;;;;20.98;5.40;;;5.00;99.90;;;;;;2089539;28;20122;-69
2022/01/06 04:48:37;;;;;;;20.48;5.85;;;5.00;99.90;;;;;;2089756;28;20463;-69
2022/01/06 04:49:38;;;;;;;24.10;5.70;;;5.00;99.90;;;;;;2083622;28;20022;-69
2022/01/06 04:50:38;;;;;;;24.42;6.05;;;5.00;99.90;;;;;;2081288;28;20041;-69
2022/01/06 04:51:39;;;;;;;26.80;6.18;;;5.00;99.90;;;;;;2089095;28;20048;-70
2022/01/06 04:52:40;;;;;;;20.85;6.00;;;5.00;99.90;;;;;;2089625;28;20021;-69
2022/01/06 04:53:40;;;;;;;17.80;5.35;;;5.00;99.90;;;;;;2089944;28;20013;-69
2022/01/06 04:54:41;;;;;;;16.83;5.03;;;5.00;99.90;;;;;;2089641;28;20014;-69
2022/01/06 04:55:42;;;;;;;20.27;5.10;;;5.00;99.90;;;;;;2087234;28;20096;-69
2022/01/06 04:56:42;;;;;;;15.43;4.47;;;5.00;99.90;;;;;;2089819;28;20013;-69
2022/01/06 04:57:43;;;;;;;14.85;5.10;;;5.00;99.90;;;;;;2087055;28;20021;-69
2022/01/06 04:58:43;;;;;;;15.07;5.65;;;5.00;99.90;;;;;;2081530;28;20045;-69
2022/01/06 04:59:44;;;;;;;23.70;5.82;;;5.00;99.90;;;;;;2081570;28;20022;-69
2022/01/06 05:00:44;;;;;;;17.23;4.78;;;5.00;99.90;;;;;;2088837;28;20075;-69
2022/01/06 05:01:45;;;;;;;16.65;4.88;;;5.00;99.90;;;;;;2095962;28;20519;-69
2022/01/06 05:02:45;;;;;;;19.13;5.30;;;5.00;99.90;;;;;;2076953;28;20029;-69
2022/01/06 05:03:46;;;;;;;16.77;4.25;;;5.00;99.90;;;;;;2076820;28;20125;-69
2022/01/06 05:04:46;;;;;;;19.58;5.22;;;5.00;99.90;;;;;;2083076;28;20018;-69
2022/01/06 05:05:47;;;;;;;19.15;4.68;;;5.00;99.90;;;;;;2086683;28;20091;-69
2022/01/06 05:06:50;;;;;;;14.45;3.72;;;5.00;99.90;;;;;;2082995;28;20022;-69
2022/01/06 05:07:51;;;;;;;23.65;5.97;;;5.00;99.90;;;;;;2083119;28;20028;-69
2022/01/06 05:08:52;;;;;;;14.32;4.22;;;5.00;99.90;;;;;;2082926;28;20040;-69
2022/01/06 05:09:53;;;;;;;22.10;5.00;;;4.90;99.90;;;;;;2082938;28;20028;-69
2022/01/06 05:10:53;;;;;;;21.85;5.80;;;4.90;99.90;;;;;;2083343;28;20026;-69
2022/01/06 05:11:54;;;;;;;17.15;4.70;;;4.90;99.90;;;;;;2082438;28;20018;-69
2022/01/06 05:12:54;;;;;;;14.10;4.15;;;4.90;99.90;;;;;;2083048;28;20022;-69
2022/01/06 05:13:55;;;;;;;21.33;5.22;;;4.90;99.90;;;;;;2083138;28;20021;-69
2022/01/06 05:14:55;;;;;;;16.95;4.63;;;4.90;99.90;;;;;;2082979;28;20025;-69
2022/01/06 05:15:56;;;;;;;15.75;4.22;;;4.90;99.90;;;;;;2083044;28;20037;-69
2022/01/06 05:16:57;;;;;;;14.48;3.72;;;4.90;99.90;;;;;;2082878;28;20052;-69
2022/01/06 05:17:57;;;;;;;14.00;4.10;;;4.80;99.90;;;;;;2083029;28;20493;-69
2022/01/06 05:18:58;;;;;;;14.57;3.90;;;4.80;99.90;;;;;;2082991;28;20029;-69
2022/01/06 05:19:58;;;;;;;11.57;3.92;;;4.80;99.90;;;;;;2082942;28;20023;-69
2022/01/06 05:20:59;;;;;;;19.10;4.45;;;4.80;99.90;;;;;;2083097;28;20026;-69
2022/01/06 05:22:00;;;;;;;15.50;4.20;;;4.80;99.90;;;;;;2082621;28;20393;-69
2022/01/06 05:23:00;;;;;;;16.13;4.25;;;4.80;99.90;;;;;;2082895;28;20025;-69
2022/01/06 05:24:01;;;;;;;21.50;5.03;;;4.80;99.90;;;;;;2090939;28;20465;-69